To NAV CANADA Home Page Login to a new session Search on AWWS site Feedback and Comments Disclaimer Vers la page française équivalente Tips FAQ What's new on the site To the Forecasts and Observations / NOTAM section To "File a Flight Plan" website Publications and other links Update of the User's profile FIC Telephone Numbers My Weather Data Folder Route Weather Data Regional Weather Data Local Weather Data To the Forecasts and Observations / NOTAM section
Request Generated 06/26/2017 at 03:44:26 UTC . Weather information available at that time is displayed.

METAR/TAF

If you find any discrepancies between the coded METAR/TAF and the plain language METAR/TAF please use the coded METAR/TAF. LWIS bulletins are not decoded in plain language.

CALGARY INTL/AB    

METAR CYYC 260300Z 15015G22KT 30SM FEW150 FEW190 SCT250 21/09 A3009 RMK AC1AS1CI4 AC TR AS TR HZ ON THE HRZN / CONTRAILS SLP184 DENSITY ALT 5000FT=
METAR
LOCATION
CYYC - CALGARY INTL/AB
DATE - TIME
26 JUNE 2017 - 0300 UTC
WIND
150 TRUE @ 15  KNOTS
GUSTS
22 KNOTS
VISIBILITY
30 STAT.  MILES
RUNWAY VISUAL RANGE
WEATHER
CLOUDINESS
FEW CLOUDS (1/8 - 2/8) 15000  FT
FEW CLOUDS (1/8 - 2/8) 19000  FT
SCATTERED CLOUDS (3/8 - 4/8) 25000  FT
TEMP / DEWPOINT
21 C / 9 C
ALTIMETER
30.09 IN HG
RECENT WEATHER
WIND SHEAR

METAR CYYC 260200Z 15015G21KT 30SM FEW160 FEW180 SCT250 23/08 A3010 RMK AC1AS1CI4 AC TR AS TR HZ ON THE HRZN / CONTRAILS SLP190 DENSITY ALT 5200FT=
METAR
LOCATION
CYYC - CALGARY INTL/AB
DATE - TIME
26 JUNE 2017 - 0200 UTC
WIND
150 TRUE @ 15  KNOTS
GUSTS
21 KNOTS
VISIBILITY
30 STAT.  MILES
RUNWAY VISUAL RANGE
WEATHER
CLOUDINESS
FEW CLOUDS (1/8 - 2/8) 16000  FT
FEW CLOUDS (1/8 - 2/8) 18000  FT
SCATTERED CLOUDS (3/8 - 4/8) 25000  FT
TEMP / DEWPOINT
23 C / 8 C
ALTIMETER
30.10 IN HG
RECENT WEATHER
WIND SHEAR

METAR CYYC 260100Z 16017G23KT 40SM FEW055 FEW150 SCT230 BKN260 24/08 A3011 RMK CU1AC1CI3CI3 CU TR SLP195 DENSITY ALT 5300FT=
METAR
LOCATION
CYYC - CALGARY INTL/AB
DATE - TIME
26 JUNE 2017 - 0100 UTC
WIND
160 TRUE @ 17  KNOTS
GUSTS
23 KNOTS
VISIBILITY
40 STAT.  MILES
RUNWAY VISUAL RANGE
WEATHER
CLOUDINESS
FEW CLOUDS (1/8 - 2/8) 5500  FT
FEW CLOUDS (1/8 - 2/8) 15000  FT
SCATTERED CLOUDS (3/8 - 4/8) 23000  FT
BROKEN CLOUDS (5/8 - 7/8) 26000  FT
TEMP / DEWPOINT
24 C / 8 C
ALTIMETER
30.11 IN HG
RECENT WEATHER
WIND SHEAR

TAF CYYC 260241Z 2603/2624 14015G25KT P6SM FEW160 SCT250 BECMG 2606/2608 16010KT WS005/17035KT BECMG 2610/2612 16008KT FM261200 16008KT P6SM BKN200 BECMG 2614/2616 19010G20KT FM262000 19015G25KT P6SM FEW090 BKN180 FM262200 24020KT P6SM FEW090CB BKN250 PROB30 2622/2624 VRB35G45KT P6SM VCTS SCT090CB RMK NXT FCST BY 260600Z=
TAF
LOCATION

CYYC - CALGARY INTL/AB
VALIDITY [UTC]
26 JUN - 0241 to
27 JUN - 0000
 
TIMES
[UTC]
WIND
[DEGREES TRUE]
VISIBILITY
[STAT. MILES]
WEATHER
CLOUDINESS
[FEET AGL]
 
26 JUN - 0300 to
26 JUN - 1200
140 @ 15 KNOTS
GUSTS 25 KNOTS
6+
NIL
16000 FEW
25000 SCATTERED
BECOMING
26 JUN - 0600 to
26 JUN - 0800
160 @ 10 KNOTS
WIND SHEAR: WINDS AT 500 FEET 170 @ 35 KNOTS
 
 
 
BECOMING
26 JUN - 1000 to
26 JUN - 1200
160 @ 8 KNOTS
 
 
 
 
26 JUN - 1200 to
26 JUN - 2000
160 @ 8 KNOTS
6+
NIL
20000 BROKEN
BECOMING
26 JUN - 1400 to
26 JUN - 1600
190 @ 10 KNOTS
GUSTS 20 KNOTS
 
 
 
 
26 JUN - 2000 to
26 JUN - 2200
190 @ 15 KNOTS
GUSTS 25 KNOTS
6+
NIL
9000 FEW
18000 BROKEN
 
26 JUN - 2200 to
27 JUN - 0000
240 @ 20 KNOTS
6+
NIL
9000 FEW WITH CUMULONIMBUS
25000 BROKEN
30% PROBABILITY
26 JUN - 2200 to
27 JUN - 0000
VARIABLE @ 35 KNOTS
GUSTS 45 KNOTS
6+
SPRAY IN THE VICINITY
9000 SCATTERED WITH CUMULONIMBUS
REMARKS
THE NEXT FORECAST WILL BE ISSUED BY 0600 UTC ON DAY 26


Your time UTC time
Weather data provided by Environment Canada and NAV CANADA